Time;durP1;ratioP1;P1;durP2;ratioP2;P2;SDS_P1;SDS_P2;PMS_P1;PMS_P2;Temp;Humidity;BMP_temperature;BMP_pressure;BME280_temperature;BME280_humidity;BME280_pressure;Samples;Min_cycle;Max_cycle;Signal;HPM_P1;HPM_P2
2022/01/30 00:01:45;;;;;;;24.63;22.33;;;;;;;;;;5053693;28;20193;-82
2022/01/30 00:04:12;;;;;;;21.60;19.58;;;;;;;;;;5053808;28;20219;-80
2022/01/30 00:06:40;;;;;;;20.98;19.25;;;;;;;;;;5053310;28;20829;-83
2022/01/30 00:09:10;;;;;;;22.00;20.10;;;;;;;;;;5053268;28;20539;-80
2022/01/30 00:11:41;;;;;;;24.00;21.43;;;;;;;;;;5053545;28;20290;-80
2022/01/30 00:14:12;;;;;;;24.45;21.35;;;;;;;;;;5053225;28;20492;-81
2022/01/30 00:16:39;;;;;;;24.75;21.42;;;;;;;;;;5053259;28;20221;-80
2022/01/30 00:19:15;;;;;;;21.58;19.63;;;;;;;;;;5053533;28;20290;-80
2022/01/30 00:21:46;;;;;;;22.75;20.90;;;;;;;;;;5053487;28;20194;-80
2022/01/30 00:24:20;;;;;;;22.52;20.38;;;;;;;;;;5053551;28;20209;-82
2022/01/30 00:26:50;;;;;;;21.63;19.75;;;;;;;;;;5053137;28;20670;-80
2022/01/30 00:29:18;;;;;;;22.95;20.55;;;;;;;;;;5053334;28;20545;-81
2022/01/30 00:31:45;;;;;;;24.98;22.55;;;;;;;;;;5053226;28;20190;-80
2022/01/30 00:34:12;;;;;;;25.67;20.55;;;;;;;;;;5052809;28;20197;-80
2022/01/30 00:36:40;;;;;;;22.63;20.65;;;;;;;;;;5053367;28;20240;-80
2022/01/30 00:39:07;;;;;;;21.87;20.00;;;;;;;;;;5053062;28;20190;-80
2022/01/30 00:41:35;;;;;;;22.83;20.63;;;;;;;;;;5035875;28;20808;-78
2022/01/30 00:44:04;;;;;;;22.77;21.08;;;;;;;;;;5053236;28;20196;-82
2022/01/30 00:46:31;;;;;;;32.78;20.60;;;;;;;;;;5052879;28;20189;-80
2022/01/30 00:48:58;;;;;;;21.63;19.55;;;;;;;;;;5053140;28;20242;-82
2022/01/30 00:51:26;;;;;;;27.92;22.50;;;;;;;;;;5035015;28;20252;-80
2022/01/30 00:53:53;;;;;;;23.48;21.30;;;;;;;;;;5052748;28;20190;-80
2022/01/30 00:56:20;;;;;;;22.42;20.25;;;;;;;;;;5052676;28;20744;-79
2022/01/30 00:58:48;;;;;;;23.88;21.48;;;;;;;;;;5052632;28;20190;-80
2022/01/30 01:01:16;;;;;;;23.40;21.10;;;;;;;;;;5052937;28;20265;-81
2022/01/30 01:03:44;;;;;;;20.40;19.00;;;;;;;;;;5052783;28;20679;-81
2022/01/30 01:06:11;;;;;;;24.77;21.48;;;;;;;;;;5035029;28;20225;-80
2022/01/30 01:08:49;;;;;;;23.38;21.20;;;;;;;;;;5053578;28;20190;-81
2022/01/30 01:11:41;;;;;;;23.33;21.02;;;;;;;;;;5056894;28;20198;-81
2022/01/30 01:20:52;;;;;;;28.17;21.30;;;;;;;;;;5056569;28;20778;-81
2022/01/30 01:25:18;;;;;;;22.40;20.40;;;;;;;;;;5057006;28;20190;-80
2022/01/30 01:27:46;;;;;;;22.92;20.85;;;;;;;;;;5056862;28;20194;-80
2022/01/30 01:30:14;;;;;;;22.92;20.80;;;;;;;;;;5056817;28;20195;-81
2022/01/30 01:32:43;;;;;;;23.90;21.23;;;;;;;;;;5056771;28;20194;-80
2022/01/30 01:35:10;;;;;;;27.63;21.35;;;;;;;;;;5056768;28;20663;-79
2022/01/30 01:37:38;;;;;;;31.50;21.67;;;;;;;;;;5056738;28;20327;-80
2022/01/30 01:40:06;;;;;;;22.65;20.70;;;;;;;;;;5038543;28;20210;-80
2022/01/30 01:42:35;;;;;;;32.25;22.05;;;;;;;;;;5056486;28;20576;-80
2022/01/30 01:45:03;;;;;;;27.25;20.75;;;;;;;;;;5056360;28;20532;-79
2022/01/30 01:47:33;;;;;;;25.63;19.50;;;;;;;;;;5038895;28;20221;-80
2022/01/30 01:50:02;;;;;;;24.20;21.30;;;;;;;;;;5056401;28;20197;-80
2022/01/30 01:52:30;;;;;;;23.33;20.92;;;;;;;;;;5056494;28;20202;-80
2022/01/30 01:54:59;;;;;;;23.23;20.80;;;;;;;;;;5056163;28;20195;-80
2022/01/30 01:57:27;;;;;;;23.05;20.80;;;;;;;;;;5056226;28;20576;-80
2022/01/30 01:59:56;;;;;;;21.73;19.98;;;;;;;;;;5056136;28;20198;-80
2022/01/30 02:02:24;;;;;;;22.17;20.27;;;;;;;;;;5056077;28;20190;-80
2022/01/30 02:04:52;;;;;;;22.10;20.30;;;;;;;;;;5056141;28;20623;-79
2022/01/30 02:10:13;;;;;;;25.67;21.45;;;;;;;;;;5030331;28;20229;-80
2022/01/30 02:12:47;;;;;;;20.80;19.38;;;;;;;;;;5055384;28;20240;-82
2022/01/30 02:15:34;;;;;;;26.15;22.25;;;;;;;;;;5055704;28;20219;-80
2022/01/30 02:26:19;;;;;;;24.40;21.15;;;;;;;;;;5055708;28;20276;-80
2022/01/30 02:28:46;;;;;;;22.80;20.75;;;;;;;;;;5055368;28;20194;-80
2022/01/30 02:31:19;;;;;;;22.80;20.48;;;;;;;;;;5055260;28;20203;-80
2022/01/30 02:33:47;;;;;;;21.20;19.25;;;;;;;;;;5055521;28;20219;-80
2022/01/30 02:36:14;;;;;;;25.65;21.33;;;;;;;;;;5055102;28;20218;-80
2022/01/30 02:38:43;;;;;;;29.92;20.23;;;;;;;;;;5055428;28;20193;-79
2022/01/30 02:41:10;;;;;;;21.48;19.75;;;;;;;;;;5055287;28;20198;-80
2022/01/30 02:43:48;;;;;;;25.10;22.55;;;;;;;;;;5055507;28;20585;-80
2022/01/30 02:46:25;;;;;;;22.20;20.67;;;;;;;;;;5055413;28;20203;-80
2022/01/30 02:48:56;;;;;;;20.77;19.30;;;;;;;;;;5055337;28;20189;-79
2022/01/30 02:51:32;;;;;;;22.77;20.48;;;;;;;;;;5055281;28;20273;-80
2022/01/30 02:54:05;;;;;;;21.40;19.48;;;;;;;;;;5055216;28;20251;-80
2022/01/30 02:56:34;;;;;;;20.35;18.80;;;;;;;;;;5055016;28;20222;-79
2022/01/30 02:59:01;;;;;;;20.60;19.10;;;;;;;;;;5054723;28;20190;-81
2022/01/30 03:01:28;;;;;;;20.73;19.00;;;;;;;;;;5055089;28;20548;-80
2022/01/30 03:03:56;;;;;;;22.35;19.83;;;;;;;;;;5054647;28;20636;-80
2022/01/30 03:06:23;;;;;;;24.23;20.85;;;;;;;;;;5055060;28;20224;-80
2022/01/30 03:08:50;;;;;;;22.50;20.40;;;;;;;;;;5054724;28;20241;-80
2022/01/30 03:11:19;;;;;;;22.25;20.15;;;;;;;;;;5054602;28;20185;-79
2022/01/30 03:13:47;;;;;;;23.25;20.95;;;;;;;;;;5054556;28;20235;-80
2022/01/30 03:16:14;;;;;;;22.95;20.40;;;;;;;;;;5054664;28;20232;-80
2022/01/30 03:18:43;;;;;;;23.20;20.38;;;;;;;;;;5054605;28;20268;-80
2022/01/30 03:21:10;;;;;;;22.50;20.30;;;;;;;;;;5054340;28;20833;-80
2022/01/30 03:23:38;;;;;;;21.73;19.92;;;;;;;;;;5054632;28;20214;-80
2022/01/30 03:26:06;;;;;;;22.73;20.48;;;;;;;;;;5054539;28;20230;-80
2022/01/30 03:28:35;;;;;;;21.20;19.33;;;;;;;;;;5054465;28;20209;-79
2022/01/30 03:31:06;;;;;;;22.60;20.20;;;;;;;;;;5053981;28;20224;-80
2022/01/30 03:33:34;;;;;;;21.73;20.20;;;;;;;;;;5053959;28;20276;-81
2022/01/30 03:36:01;;;;;;;21.80;19.98;;;;;;;;;;5036565;28;20222;-80
2022/01/30 03:38:28;;;;;;;22.25;20.13;;;;;;;;;;5054381;28;20632;-80
2022/01/30 03:40:56;;;;;;;21.08;19.27;;;;;;;;;;5054221;28;20192;-80
2022/01/30 03:43:23;;;;;;;21.25;19.55;;;;;;;;;;5054102;28;20193;-80
2022/01/30 03:45:52;;;;;;;22.13;20.45;;;;;;;;;;5054200;28;20225;-79
2022/01/30 03:48:20;;;;;;;20.08;18.75;;;;;;;;;;5053748;28;20751;-80
2022/01/30 03:50:47;;;;;;;24.80;20.38;;;;;;;;;;5054237;28;20190;-80
2022/01/30 03:53:14;;;;;;;24.92;20.50;;;;;;;;;;5054001;28;20189;-80
2022/01/30 03:55:42;;;;;;;20.85;19.27;;;;;;;;;;5053556;28;20672;-80
2022/01/30 03:58:09;;;;;;;21.25;19.52;;;;;;;;;;5053498;28;20252;-80
2022/01/30 04:00:36;;;;;;;19.92;18.70;;;;;;;;;;5053718;28;20553;-80
2022/01/30 04:03:05;;;;;;;21.00;19.70;;;;;;;;;;5053818;28;20194;-80
2022/01/30 04:05:33;;;;;;;23.40;21.30;;;;;;;;;;5053441;28;20318;-80
2022/01/30 04:08:02;;;;;;;20.77;19.40;;;;;;;;;;5053724;28;20251;-79
2022/01/30 04:10:30;;;;;;;22.80;21.15;;;;;;;;;;5053382;28;20317;-80
2022/01/30 04:12:57;;;;;;;29.27;20.52;;;;;;;;;;5053110;28;20633;-80
2022/01/30 04:15:25;;;;;;;21.33;19.75;;;;;;;;;;5053695;28;20248;-80
2022/01/30 04:17:53;;;;;;;26.65;21.38;;;;;;;;;;5053497;28;20203;-80
2022/01/30 04:20:22;;;;;;;22.73;20.48;;;;;;;;;;5053522;28;20186;-79
2022/01/30 04:22:49;;;;;;;21.33;19.67;;;;;;;;;;5053248;28;20255;-79
2022/01/30 04:25:17;;;;;;;23.48;20.65;;;;;;;;;;5053634;28;20193;-80
2022/01/30 04:27:44;;;;;;;23.45;20.92;;;;;;;;;;5035217;28;20544;-80
2022/01/30 04:30:12;;;;;;;21.05;19.05;;;;;;;;;;5053377;28;20206;-79
2022/01/30 04:32:42;;;;;;;22.58;20.52;;;;;;;;;;5053309;28;20195;-79
2022/01/30 04:35:14;;;;;;;23.45;21.52;;;;;;;;;;5053089;28;20666;-79
2022/01/30 04:37:56;;;;;;;25.15;20.75;;;;;;;;;;5052758;28;20233;-80
2022/01/30 04:40:47;;;;;;;23.10;20.73;;;;;;;;;;5053187;28;20191;-79
2022/01/30 05:00:06;;;;;;;21.70;19.75;;;;;;;;;;5011106;28;20329;-80
2022/01/30 05:05:43;;;;;;;23.90;20.38;;;;;;;;;;5011173;28;20214;-80
2022/01/30 05:08:11;;;;;;;23.65;20.52;;;;;;;;;;5010826;28;20296;-80
2022/01/30 05:10:40;;;;;;;21.23;19.52;;;;;;;;;;5010988;28;20693;-80
2022/01/30 05:13:11;;;;;;;22.23;20.30;;;;;;;;;;5010640;28;20228;-79
2022/01/30 05:15:39;;;;;;;22.92;20.77;;;;;;;;;;5010816;28;20215;-79
2022/01/30 05:18:07;;;;;;;23.27;21.15;;;;;;;;;;5010907;28;20227;-79
2022/01/30 05:20:35;;;;;;;22.67;20.65;;;;;;;;;;5010819;28;20206;-80
2022/01/30 05:23:03;;;;;;;23.13;21.20;;;;;;;;;;5010891;28;20606;-79
2022/01/30 05:25:30;;;;;;;20.90;18.83;;;;;;;;;;5011010;28;20215;-79
2022/01/30 05:27:59;;;;;;;22.70;20.38;;;;;;;;;;5010721;28;20308;-79
2022/01/30 05:30:27;;;;;;;23.85;20.95;;;;;;;;;;5010648;28;20191;-79
2022/01/30 05:32:55;;;;;;;25.52;20.10;;;;;;;;;;5031416;28;20247;-80
2022/01/30 05:35:22;;;;;;;20.98;19.50;;;;;;;;;;5052394;28;20194;-80
2022/01/30 05:37:50;;;;;;;22.40;20.50;;;;;;;;;;5052599;28;20276;-80
2022/01/30 05:40:18;;;;;;;23.38;20.83;;;;;;;;;;5052636;28;20190;-79
2022/01/30 05:42:46;;;;;;;21.85;19.95;;;;;;;;;;5052520;28;20205;-80
2022/01/30 05:45:20;;;;;;;21.88;19.70;;;;;;;;;;5034240;28;20206;-79
2022/01/30 05:47:53;;;;;;;21.25;19.45;;;;;;;;;;5052168;28;20697;-79
2022/01/30 05:50:21;;;;;;;19.35;18.25;;;;;;;;;;5052391;28;20281;-79
2022/01/30 05:52:48;;;;;;;21.90;19.75;;;;;;;;;;5052119;28;20236;-79
2022/01/30 05:55:16;;;;;;;21.58;19.88;;;;;;;;;;5053842;28;20674;-79
2022/01/30 05:57:43;;;;;;;24.67;19.60;;;;;;;;;;5055729;28;20218;-79
2022/01/30 06:00:13;;;;;;;21.95;19.88;;;;;;;;;;5037999;28;20202;-80
2022/01/30 06:02:43;;;;;;;21.27;18.73;;;;;;;;;;5056147;28;20608;-79
2022/01/30 06:05:10;;;;;;;21.00;19.27;;;;;;;;;;5055731;28;20237;-79
2022/01/30 06:07:46;;;;;;;23.25;20.90;;;;;;;;;;5055570;28;20190;-80
2022/01/30 06:10:14;;;;;;;25.27;20.73;;;;;;;;;;5055872;28;20193;-79
2022/01/30 06:12:41;;;;;;;23.60;21.08;;;;;;;;;;5055584;28;20228;-80
2022/01/30 06:15:09;;;;;;;21.45;19.58;;;;;;;;;;5055897;28;20202;-80
2022/01/30 06:17:36;;;;;;;20.02;18.90;;;;;;;;;;5055920;28;20316;-79
2022/01/30 06:20:07;;;;;;;20.55;18.95;;;;;;;;;;5055522;28;20189;-80
2022/01/30 06:22:34;;;;;;;22.27;20.25;;;;;;;;;;5037619;28;20655;-80
2022/01/30 06:25:02;;;;;;;27.20;20.80;;;;;;;;;;5055583;28;20685;-79
2022/01/30 06:27:29;;;;;;;20.33;18.73;;;;;;;;;;5021417;28;20736;-80
2022/01/30 06:29:57;;;;;;;21.77;19.85;;;;;;;;;;5055758;28;20210;-79
2022/01/30 06:32:24;;;;;;;21.10;19.23;;;;;;;;;;5055175;28;20655;-79
2022/01/30 06:34:51;;;;;;;21.65;19.90;;;;;;;;;;5037916;28;20252;-79
2022/01/30 06:37:20;;;;;;;23.27;20.60;;;;;;;;;;5055380;28;20218;-79
2022/01/30 06:39:48;;;;;;;23.38;20.88;;;;;;;;;;5037210;28;20664;-80
2022/01/30 06:42:15;;;;;;;24.10;21.90;;;;;;;;;;5055076;28;20198;-79
2022/01/30 06:44:44;;;;;;;33.95;22.58;;;;;;;;;;5055371;28;20599;-80
2022/01/30 06:47:12;;;;;;;21.20;19.40;;;;;;;;;;5054996;28;20230;-80
2022/01/30 06:49:40;;;;;;;22.63;20.08;;;;;;;;;;5054827;28;20316;-80
2022/01/30 06:52:09;;;;;;;27.80;21.25;;;;;;;;;;5054976;28;20188;-80
2022/01/30 06:54:39;;;;;;;21.20;18.98;;;;;;;;;;5054658;28;20190;-81
2022/01/30 06:57:07;;;;;;;20.35;18.52;;;;;;;;;;5054813;28;20775;-80
2022/01/30 06:59:34;;;;;;;20.45;18.98;;;;;;;;;;5054988;28;20198;-80
2022/01/30 07:02:01;;;;;;;22.38;20.35;;;;;;;;;;5054901;28;20535;-80
2022/01/30 07:04:29;;;;;;;22.25;19.60;;;;;;;;;;5054728;28;20235;-80
2022/01/30 07:06:57;;;;;;;28.17;21.15;;;;;;;;;;5053933;28;20240;-82
2022/01/30 07:09:24;;;;;;;22.60;20.55;;;;;;;;;;5054408;28;20190;-80
2022/01/30 07:11:53;;;;;;;26.17;21.05;;;;;;;;;;5054473;28;20681;-81
2022/01/30 07:14:21;;;;;;;22.75;20.30;;;;;;;;;;5054540;28;20375;-81
2022/01/30 07:16:48;;;;;;;24.00;21.70;;;;;;;;;;5054859;28;20540;-81
2022/01/30 07:19:15;;;;;;;23.20;20.92;;;;;;;;;;5036724;28;20605;-80
2022/01/30 07:21:43;;;;;;;20.00;18.67;;;;;;;;;;5054514;28;20631;-82
2022/01/30 07:24:10;;;;;;;21.95;20.10;;;;;;;;;;5037573;28;20200;-82
2022/01/30 07:26:37;;;;;;;23.33;21.27;;;;;;;;;;5055150;28;20534;-82
2022/01/30 07:29:06;;;;;;;26.92;21.60;;;;;;;;;;5054669;28;20189;-82
2022/01/30 07:31:34;;;;;;;23.80;20.80;;;;;;;;;;5055022;28;20194;-82
2022/01/30 07:34:01;;;;;;;20.77;19.02;;;;;;;;;;5054741;28;20196;-82
2022/01/30 07:36:29;;;;;;;22.77;20.33;;;;;;;;;;5054762;28;20210;-82
2022/01/30 07:38:56;;;;;;;25.90;21.65;;;;;;;;;;5054795;28;20197;-82
2022/01/30 07:41:24;;;;;;;22.38;20.02;;;;;;;;;;5054610;28;20193;-82
2022/01/30 07:43:51;;;;;;;30.15;21.08;;;;;;;;;;5054813;28;20224;-82
2022/01/30 07:46:20;;;;;;;36.08;21.98;;;;;;;;;;5054424;28;20242;-82
2022/01/30 07:48:47;;;;;;;23.17;20.90;;;;;;;;;;5054397;28;20654;-82
2022/01/30 07:51:14;;;;;;;24.48;20.20;;;;;;;;;;5054057;28;20631;-81
2022/01/30 07:53:42;;;;;;;24.38;21.30;;;;;;;;;;5054330;28;20246;-83
2022/01/30 07:56:09;;;;;;;22.70;20.25;;;;;;;;;;5054336;28;20532;-82
2022/01/30 07:58:36;;;;;;;23.38;20.92;;;;;;;;;;5036768;28;20219;-82
2022/01/30 08:01:04;;;;;;;22.50;20.35;;;;;;;;;;5054190;28;20195;-81
2022/01/30 08:03:33;;;;;;;33.88;22.13;;;;;;;;;;5054387;28;20240;-81
2022/01/30 08:06:00;;;;;;;23.63;21.13;;;;;;;;;;5054155;28;20221;-81
2022/01/30 08:08:27;;;;;;;25.38;22.38;;;;;;;;;;5036821;28;20265;-82
2022/01/30 08:10:54;;;;;;;33.72;22.35;;;;;;;;;;5053771;28;20198;-82
2022/01/30 08:13:22;;;;;;;24.75;22.55;;;;;;;;;;5053640;28;20246;-82
2022/01/30 08:15:49;;;;;;;27.60;22.40;;;;;;;;;;5053563;28;20202;-81
2022/01/30 08:18:16;;;;;;;28.17;22.67;;;;;;;;;;5053124;28;20692;-82
2022/01/30 08:20:45;;;;;;;27.88;22.55;;;;;;;;;;5054068;28;20523;-82
2022/01/30 08:23:15;;;;;;;23.85;20.60;;;;;;;;;;5053774;28;20190;-82
2022/01/30 08:25:43;;;;;;;23.98;21.75;;;;;;;;;;5054143;28;20255;-82
2022/01/30 08:28:10;;;;;;;27.90;21.98;;;;;;;;;;5054180;28;20284;-83
2022/01/30 08:30:38;;;;;;;32.70;23.50;;;;;;;;;;5054031;28;20198;-82
2022/01/30 08:33:05;;;;;;;25.23;21.15;;;;;;;;;;5053942;28;20256;-82
2022/01/30 08:35:33;;;;;;;39.20;22.98;;;;;;;;;;5053583;28;20194;-82
2022/01/30 08:38:02;;;;;;;37.88;23.40;;;;;;;;;;5053803;28;20299;-84
2022/01/30 08:40:30;;;;;;;38.80;22.40;;;;;;;;;;5053524;28;20622;-83
2022/01/30 08:42:57;;;;;;;24.50;22.05;;;;;;;;;;5053361;28;20194;-87
2022/01/30 08:45:25;;;;;;;31.60;24.05;;;;;;;;;;5054125;28;20187;-87
2022/01/30 08:47:53;;;;;;;31.17;22.40;;;;;;;;;;5054498;28;20185;-88
2022/01/30 08:50:21;;;;;;;39.88;23.20;;;;;;;;;;5054012;28;20202;-90
2022/01/30 08:52:49;;;;;;;28.83;23.08;;;;;;;;;;5054397;28;20191;-89
2022/01/30 08:55:18;;;;;;;30.48;22.90;;;;;;;;;;5053844;28;20193;-87
2022/01/30 08:57:46;;;;;;;29.27;22.63;;;;;;;;;;5054150;28;20220;-87
2022/01/30 09:00:14;;;;;;;23.58;19.58;;;;;;;;;;5055536;28;20212;-90
2022/01/30 09:02:42;;;;;;;24.63;20.83;;;;;;;;;;5056128;28;20611;-88
2022/01/30 09:05:11;;;;;;;29.65;21.92;;;;;;;;;;5055352;28;20702;-80
2022/01/30 09:07:39;;;;;;;31.10;23.60;;;;;;;;;;5053144;28;20194;-84
2022/01/30 09:10:07;;;;;;;32.38;22.75;;;;;;;;;;5053423;28;20229;-81
2022/01/30 09:12:36;;;;;;;33.50;23.33;;;;;;;;;;5053282;28;20234;-90
2022/01/30 09:15:04;;;;;;;26.98;22.05;;;;;;;;;;5055581;28;20193;-92
2022/01/30 09:17:32;;;;;;;45.22;24.05;;;;;;;;;;5054091;28;20229;-82
2022/01/30 09:19:59;;;;;;;29.23;23.52;;;;;;;;;;5053576;28;20220;-82
2022/01/30 09:22:26;;;;;;;39.97;26.45;;;;;;;;;;5053150;28;20588;-80
2022/01/30 09:24:54;;;;;;;28.92;22.55;;;;;;;;;;5052695;28;20189;-80
2022/01/30 09:27:21;;;;;;;32.20;22.77;;;;;;;;;;5052703;28;20652;-79
2022/01/30 09:29:50;;;;;;;31.33;22.15;;;;;;;;;;5053792;28;20594;-81
2022/01/30 09:32:17;;;;;;;28.55;22.70;;;;;;;;;;5056941;28;20193;-81
2022/01/30 09:34:44;;;;;;;27.08;21.17;;;;;;;;;;5038860;28;20202;-80
2022/01/30 09:37:12;;;;;;;31.42;22.00;;;;;;;;;;5056228;28;20642;-82
2022/01/30 09:39:39;;;;;;;32.30;21.92;;;;;;;;;;5056714;28;20200;-80
2022/01/30 09:42:07;;;;;;;29.30;22.27;;;;;;;;;;5056590;28;20190;-83
2022/01/30 09:44:39;;;;;;;21.67;19.52;;;;;;;;;;5056532;28;20698;-81
2022/01/30 09:47:08;;;;;;;28.90;21.30;;;;;;;;;;5056524;28;20520;-80
2022/01/30 09:49:35;;;;;;;30.88;22.67;;;;;;;;;;5056450;28;20189;-81
2022/01/30 09:52:03;;;;;;;33.40;21.83;;;;;;;;;;5056579;28;20190;-80
2022/01/30 09:54:30;;;;;;;23.98;20.58;;;;;;;;;;5056297;28;20194;-82
2022/01/30 09:56:57;;;;;;;38.40;23.35;;;;;;;;;;5056322;28;20197;-80
2022/01/30 09:59:25;;;;;;;28.05;23.77;;;;;;;;;;5056165;28;20218;-80
2022/01/30 10:01:52;;;;;;;25.10;21.90;;;;;;;;;;5055986;28;20194;-80
2022/01/30 10:04:21;;;;;;;30.08;23.13;;;;;;;;;;5055687;28;20279;-79
2022/01/30 10:06:52;;;;;;;22.30;20.55;;;;;;;;;;5056237;28;20193;-79
2022/01/30 10:09:26;;;;;;;28.55;22.23;;;;;;;;;;5055880;28;20195;-81
2022/01/30 10:12:09;;;;;;;25.48;22.67;;;;;;;;;;5056039;28;20197;-80
2022/01/30 10:14:36;;;;;;;30.20;22.48;;;;;;;;;;5055674;28;20561;-80
2022/01/30 10:17:03;;;;;;;25.73;23.08;;;;;;;;;;5055582;28;20241;-80
2022/01/30 10:19:32;;;;;;;31.38;24.00;;;;;;;;;;5038110;28;20238;-80
2022/01/30 10:22:06;;;;;;;44.58;25.05;;;;;;;;;;5055480;28;20194;-80
2022/01/30 10:24:37;;;;;;;29.95;23.02;;;;;;;;;;5055808;28;20274;-82
2022/01/30 10:27:20;;;;;;;27.85;24.33;;;;;;;;;;5055476;28;20195;-82
2022/01/30 10:29:47;;;;;;;24.63;22.30;;;;;;;;;;5055998;28;20202;-82
2022/01/30 10:32:14;;;;;;;40.10;24.23;;;;;;;;;;5055834;28;20191;-79
2022/01/30 10:34:43;;;;;;;27.50;22.55;;;;;;;;;;5056238;28;20195;-86
2022/01/30 10:37:15;;;;;;;35.10;22.38;;;;;;;;;;5056189;28;20249;-85
2022/01/30 10:40:00;;;;;;;39.88;23.05;;;;;;;;;;5056328;28;20614;-86
2022/01/30 10:42:34;;;;;;;24.67;22.45;;;;;;;;;;5055115;28;20197;-87
2022/01/30 10:45:02;;;;;;;25.05;22.42;;;;;;;;;;5056250;28;20551;-82
2022/01/30 10:47:32;;;;;;;34.38;22.60;;;;;;;;;;5037256;28;20253;-81
2022/01/30 10:50:01;;;;;;;27.37;24.43;;;;;;;;;;5038086;28;20197;-82
2022/01/30 10:52:29;;;;;;;42.65;25.05;;;;;;;;;;5055065;28;20496;-81
2022/01/30 10:55:05;;;;;;;38.63;25.50;;;;;;;;;;5037316;28;20188;-82
2022/01/30 10:57:40;;;;;;;35.30;23.92;;;;;;;;;;5054602;28;20236;-81
2022/01/30 11:00:09;;;;;;;39.00;26.90;;;;;;;;;;5054631;28;20226;-82
2022/01/30 11:02:39;;;;;;;24.95;22.42;;;;;;;;;;5037084;28;20728;-82
2022/01/30 11:05:13;;;;;;;47.08;26.65;;;;;;;;;;5054644;28;20256;-81
2022/01/30 11:07:41;;;;;;;26.13;23.10;;;;;;;;;;5054534;28;20194;-82
2022/01/30 11:10:13;;;;;;;23.02;21.08;;;;;;;;;;5054562;28;20190;-82
2022/01/30 11:12:46;;;;;;;40.83;24.02;;;;;;;;;;5054462;28;20284;-82
2022/01/30 11:15:34;;;;;;;35.75;25.13;;;;;;;;;;5054888;28;20221;-83
2022/01/30 11:18:03;;;;;;;36.50;25.48;;;;;;;;;;5054774;28;20213;-82
2022/01/30 11:20:33;;;;;;;35.25;25.17;;;;;;;;;;5055199;28;20194;-87
2022/01/30 11:23:01;;;;;;;34.92;24.40;;;;;;;;;;5054127;28;20640;-86
2022/01/30 11:25:33;;;;;;;25.50;23.00;;;;;;;;;;5055063;28;20724;-78
2022/01/30 11:28:03;;;;;;;28.88;25.92;;;;;;;;;;5054680;28;20219;-79
2022/01/30 11:30:32;;;;;;;36.38;25.67;;;;;;;;;;5054416;28;20196;-83
2022/01/30 11:33:00;;;;;;;31.05;26.33;;;;;;;;;;5054019;28;20539;-81
2022/01/30 11:35:27;;;;;;;39.63;25.75;;;;;;;;;;5054429;28;20291;-81
2022/01/30 11:37:56;;;;;;;36.35;28.40;;;;;;;;;;5053890;28;20201;-81
2022/01/30 11:40:23;;;;;;;42.72;28.17;;;;;;;;;;5054315;28;20630;-81
2022/01/30 11:42:53;;;;;;;37.47;24.45;;;;;;;;;;5053678;28;20199;-81
2022/01/30 11:45:24;;;;;;;32.28;25.20;;;;;;;;;;5054226;28;20730;-81
2022/01/30 11:47:52;;;;;;;25.45;23.25;;;;;;;;;;5054037;28;20191;-81
2022/01/30 11:50:21;;;;;;;35.63;26.25;;;;;;;;;;5054095;28;20199;-80
2022/01/30 11:52:58;;;;;;;31.65;24.90;;;;;;;;;;5053783;28;20286;-79
2022/01/30 11:55:46;;;;;;;35.28;25.55;;;;;;;;;;5053511;28;20541;-79
2022/01/30 11:58:33;;;;;;;38.10;29.25;;;;;;;;;;5053499;28;20226;-79
2022/01/30 12:01:01;;;;;;;31.95;25.15;;;;;;;;;;5053652;28;20693;-80
2022/01/30 12:03:29;;;;;;;33.92;27.73;;;;;;;;;;5054006;28;20233;-84
2022/01/30 12:05:58;;;;;;;27.70;24.95;;;;;;;;;;5036812;28;20729;-84
2022/01/30 12:08:46;;;;;;;30.42;25.38;;;;;;;;;;5055056;28;20194;-85
2022/01/30 12:11:47;;;;;;;26.92;24.35;;;;;;;;;;5054998;28;20258;-89
2022/01/30 12:14:30;;;;;;;26.10;23.75;;;;;;;;;;4974967;28;20237;-92
2022/01/30 12:17:00;;;;;;;26.75;24.13;;;;;;;;;;4973909;28;20205;-89
2022/01/30 12:19:44;;;;;;;38.45;27.52;;;;;;;;;;4975076;28;20284;-89
2022/01/30 12:22:35;;;;;;;33.15;25.73;;;;;;;;;;4974723;28;20213;-90
2022/01/30 12:25:18;;;;;;;26.83;24.65;;;;;;;;;;4919256;29;20215;-87
2022/01/30 12:27:50;;;;;;;36.05;24.88;;;;;;;;;;4935523;29;20664;-87
2022/01/30 12:30:31;;;;;;;33.28;26.60;;;;;;;;;;4935000;29;20205;-79
2022/01/30 12:32:58;;;;;;;32.05;25.50;;;;;;;;;;4933979;29;20569;-80
2022/01/30 12:35:25;;;;;;;28.45;23.77;;;;;;;;;;4933766;29;20212;-79
2022/01/30 12:37:53;;;;;;;28.80;25.00;;;;;;;;;;4933598;29;20289;-79
2022/01/30 12:40:21;;;;;;;38.72;27.27;;;;;;;;;;4936180;29;21094;-89
2022/01/30 12:42:50;;;;;;;30.52;26.70;;;;;;;;;;4935169;29;20199;-87
2022/01/30 12:45:18;;;;;;;32.72;26.60;;;;;;;;;;4967554;28;20203;-87
2022/01/30 12:47:48;;;;;;;29.50;26.75;;;;;;;;;;4993561;28;20255;-91
2022/01/30 12:50:16;;;;;;;31.52;27.13;;;;;;;;;;4993262;28;20209;-87
2022/01/30 12:52:48;;;;;;;39.60;27.92;;;;;;;;;;4993532;28;20207;-92
2022/01/30 12:55:17;;;;;;;31.38;25.83;;;;;;;;;;4981595;28;20207;-88
2022/01/30 12:57:45;;;;;;;33.10;26.48;;;;;;;;;;5014350;28;20273;-91
2022/01/30 13:00:15;;;;;;;31.40;26.50;;;;;;;;;;5015388;28;20231;-88
2022/01/30 13:02:55;;;;;;;40.15;25.95;;;;;;;;;;5017707;28;20447;-88
2022/01/30 13:05:22;;;;;;;38.37;26.90;;;;;;;;;;5020507;28;20535;-88
2022/01/30 13:07:53;;;;;;;26.08;23.65;;;;;;;;;;5017726;28;20444;-83
2022/01/30 13:10:21;;;;;;;27.35;24.67;;;;;;;;;;5017694;28;20200;-87
2022/01/30 13:12:49;;;;;;;36.33;24.40;;;;;;;;;;5029505;28;20237;-83
2022/01/30 13:15:27;;;;;;;37.30;27.45;;;;;;;;;;5052849;28;20645;-78
2022/01/30 13:18:02;;;;;;;34.50;27.40;;;;;;;;;;5052107;28;20553;-78
2022/01/30 13:20:30;;;;;;;33.67;26.33;;;;;;;;;;5052166;28;20529;-80
2022/01/30 13:22:57;;;;;;;35.58;29.27;;;;;;;;;;5034467;28;20265;-82
2022/01/30 13:25:25;;;;;;;35.17;27.70;;;;;;;;;;5052799;28;20593;-79
2022/01/30 13:27:53;;;;;;;31.05;25.65;;;;;;;;;;5052577;28;20199;-80
2022/01/30 13:30:23;;;;;;;27.13;24.67;;;;;;;;;;5052313;28;20190;-79
2022/01/30 13:32:50;;;;;;;39.78;25.90;;;;;;;;;;5054330;28;20920;-84
2022/01/30 13:35:18;;;;;;;29.08;24.33;;;;;;;;;;5052619;28;20552;-79
2022/01/30 13:37:47;;;;;;;34.17;24.20;;;;;;;;;;5052471;28;20226;-79
2022/01/30 13:40:19;;;;;;;32.33;24.43;;;;;;;;;;5052255;28;20466;-81
2022/01/30 13:42:52;;;;;;;29.90;26.60;;;;;;;;;;5052145;28;20451;-80
2022/01/30 13:48:07;;;;;;;29.25;25.33;;;;;;;;;;5052281;28;20198;-81
2022/01/30 13:50:36;;;;;;;33.47;26.63;;;;;;;;;;5034365;28;20200;-81
2022/01/30 13:53:05;;;;;;;26.20;23.67;;;;;;;;;;5052359;28;20202;-81
2022/01/30 13:55:33;;;;;;;28.42;25.38;;;;;;;;;;5052216;28;20192;-82
2022/01/30 13:58:01;;;;;;;32.50;26.25;;;;;;;;;;5034272;28;20231;-81
2022/01/30 14:00:31;;;;;;;30.92;26.83;;;;;;;;;;5052343;28;20222;-81
2022/01/30 14:02:59;;;;;;;29.93;25.90;;;;;;;;;;5052197;28;20592;-81
2022/01/30 14:05:28;;;;;;;28.47;25.73;;;;;;;;;;5052438;28;20972;-79
2022/01/30 14:07:56;;;;;;;33.58;25.02;;;;;;;;;;5052094;28;20496;-79
2022/01/30 14:10:24;;;;;;;30.65;26.10;;;;;;;;;;5034404;28;20203;-79
2022/01/30 14:12:52;;;;;;;41.17;27.70;;;;;;;;;;5034008;28;20232;-79
2022/01/30 14:15:20;;;;;;;31.02;27.38;;;;;;;;;;5034754;28;20223;-79
2022/01/30 14:18:03;;;;;;;39.33;25.30;;;;;;;;;;5054149;28;20203;-80
2022/01/30 14:20:32;;;;;;;27.48;24.38;;;;;;;;;;5055413;28;20680;-80
2022/01/30 14:23:04;;;;;;;30.73;24.57;;;;;;;;;;5055780;28;20188;-80
2022/01/30 14:25:32;;;;;;;28.75;24.38;;;;;;;;;;5055829;28;20439;-79
2022/01/30 14:27:59;;;;;;;26.93;24.50;;;;;;;;;;5055548;28;20214;-80
2022/01/30 14:30:36;;;;;;;34.28;25.25;;;;;;;;;;5055695;28;20438;-80
2022/01/30 14:33:05;;;;;;;34.90;25.67;;;;;;;;;;5055221;28;20290;-80
2022/01/30 14:35:36;;;;;;;29.92;25.30;;;;;;;;;;5055176;28;20195;-79
2022/01/30 14:38:04;;;;;;;34.60;24.73;;;;;;;;;;5055414;28;20222;-79
2022/01/30 14:40:35;;;;;;;38.22;26.70;;;;;;;;;;5055445;28;20519;-79
2022/01/30 14:43:02;;;;;;;30.13;26.70;;;;;;;;;;5054956;28;20591;-80
2022/01/30 14:45:31;;;;;;;31.48;27.67;;;;;;;;;;5055308;28;20445;-80
2022/01/30 14:47:58;;;;;;;29.98;25.35;;;;;;;;;;5055311;28;20207;-80
2022/01/30 14:50:27;;;;;;;27.27;24.30;;;;;;;;;;5054995;28;20195;-80
2022/01/30 14:52:54;;;;;;;40.40;27.08;;;;;;;;;;5054967;28;20222;-80
2022/01/30 14:55:22;;;;;;;29.50;24.73;;;;;;;;;;5054982;28;20636;-79
2022/01/30 14:57:53;;;;;;;30.55;26.15;;;;;;;;;;5055044;28;20794;-80
2022/01/30 15:00:22;;;;;;;34.13;25.15;;;;;;;;;;5036893;28;20231;-80
2022/01/30 15:02:51;;;;;;;29.33;25.67;;;;;;;;;;5054950;28;20248;-79
2022/01/30 15:05:18;;;;;;;28.30;25.35;;;;;;;;;;5055137;28;20884;-79
2022/01/30 15:07:48;;;;;;;27.37;24.53;;;;;;;;;;5054904;28;20196;-79
2022/01/30 15:10:15;;;;;;;31.38;25.85;;;;;;;;;;5054799;28;20429;-79
2022/01/30 15:12:43;;;;;;;32.72;25.73;;;;;;;;;;5054106;28;20237;-79